createdAt,value
2023-02-03T00:00:41.557Z,81.45
2023-02-03T00:03:09.172Z,81.35
2023-02-03T00:05:37.763Z,81.29
2023-02-03T00:08:07.171Z,81.53
2023-02-03T00:10:37.788Z,81.60
2023-02-03T00:13:05.627Z,81.88
2023-02-03T00:15:33.182Z,82.04
2023-02-03T00:18:00.764Z,82.29
2023-02-03T00:20:28.872Z,82.29
2023-02-03T00:22:56.505Z,82.23
2023-02-03T00:25:24.060Z,82.41
2023-02-03T00:27:52.963Z,82.57
2023-02-03T00:30:20.732Z,82.31
2023-02-03T00:32:48.413Z,82.45
2023-02-03T00:35:16.044Z,82.54
2023-02-03T00:37:43.645Z,82.50
2023-02-03T00:40:12.651Z,82.62
2023-02-03T00:42:40.333Z,82.58
2023-02-03T00:45:10.179Z,83.14
2023-02-03T00:47:37.749Z,83.04
2023-02-03T00:50:06.207Z,83.70
2023-02-03T00:52:34.668Z,83.88
2023-02-03T00:55:03.127Z,83.63
2023-02-03T00:57:30.679Z,83.91
2023-02-03T00:59:58.276Z,84.68
2023-02-03T01:02:27.467Z,84.73
2023-02-03T01:04:55.054Z,84.54
2023-02-03T01:07:22.618Z,84.51
2023-02-03T01:09:50.296Z,84.54
2023-02-03T01:12:17.855Z,85.16
2023-02-03T01:14:45.390Z,85.41
2023-02-03T01:17:12.962Z,84.96
2023-02-03T01:19:41.853Z,85.63
2023-02-03T01:22:09.452Z,85.13
2023-02-03T01:24:37.046Z,85.43
2023-02-03T01:27:06.596Z,85.41
2023-02-03T01:29:34.168Z,85.59
2023-02-03T01:32:01.899Z,85.36
2023-02-03T01:34:29.552Z,84.95
2023-02-03T01:36:58.480Z,85.13
2023-02-03T01:39:27.229Z,84.96
2023-02-03T01:41:56.790Z,84.90
2023-02-03T01:44:45.229Z,85.01
2023-02-03T01:47:25.975Z,85.22
2023-02-03T01:50:00.736Z,86.46
2023-02-03T01:52:30.526Z,86.57
2023-02-03T01:55:01.409Z,87.07
2023-02-03T01:57:34.615Z,87.41
2023-02-03T02:00:03.514Z,86.64
2023-02-03T02:02:41.296Z,87.67
2023-02-03T02:05:15.440Z,87.02
2023-02-03T02:07:44.858Z,87.39
2023-02-03T02:10:12.661Z,87.96
2023-02-03T02:12:42.877Z,88.36
2023-02-03T02:15:11.379Z,88.98
2023-02-03T02:18:04.034Z,89.64
2023-02-03T02:21:04.375Z,89.54
2023-02-03T02:23:56.308Z,89.42
2023-02-03T02:26:51.843Z,89.49
2023-02-03T02:29:48.669Z,88.77
2023-02-03T02:32:29.405Z,89.54
2023-02-03T02:35:05.847Z,90.05
2023-02-03T02:37:43.215Z,89.66
2023-02-03T02:40:21.495Z,90.00
2023-02-03T02:43:01.189Z,89.80
2023-02-03T02:45:32.921Z,89.52
2023-02-03T02:48:08.167Z,89.83
2023-02-03T02:50:41.036Z,89.66
2023-02-03T02:53:10.861Z,88.97
2023-02-03T02:55:44.000Z,88.64
2023-02-03T02:58:15.999Z,88.87
2023-02-03T03:00:45.847Z,89.07
2023-02-03T03:03:16.654Z,88.57
2023-02-03T03:05:48.896Z,88.24
2023-02-03T03:08:23.417Z,87.59
2023-02-03T03:10:53.696Z,87.59
2023-02-03T03:13:27.428Z,87.60
2023-02-03T03:15:56.868Z,88.00
2023-02-03T03:18:32.322Z,86.96
2023-02-03T03:21:06.058Z,87.22
2023-02-03T03:23:39.256Z,86.88
2023-02-03T03:26:13.532Z,86.77
2023-02-03T03:28:47.525Z,87.06
2023-02-03T03:31:15.703Z,88.32
2023-02-03T03:33:45.344Z,87.97
2023-02-03T03:36:23.321Z,89.32
2023-02-03T03:38:56.920Z,90.54
2023-02-03T03:41:32.435Z,90.84
2023-02-03T03:44:04.389Z,90.56
2023-02-03T03:46:36.464Z,90.07
2023-02-03T03:49:08.508Z,89.85
2023-02-03T03:51:41.772Z,89.17
2023-02-03T03:54:12.370Z,89.19
2023-02-03T03:56:43.512Z,88.88
2023-02-03T03:59:15.225Z,88.56
2023-02-03T04:01:43.702Z,88.42
2023-02-03T04:04:13.157Z,88.38
2023-02-03T04:06:41.338Z,87.83
2023-02-03T04:09:09.036Z,87.88
2023-02-03T04:11:54.344Z,88.37
2023-02-03T04:14:21.874Z,87.79
2023-02-03T04:16:49.622Z,87.67
2023-02-03T04:19:18.536Z,87.70
2023-02-03T04:21:46.187Z,87.82
2023-02-03T04:24:14.071Z,87.94
2023-02-03T04:26:41.912Z,88.01
2023-02-03T04:29:09.635Z,88.54
2023-02-03T04:31:38.555Z,89.14
2023-02-03T04:34:06.521Z,89.52
2023-02-03T04:36:35.392Z,89.87
2023-02-03T04:39:02.907Z,90.06
2023-02-03T04:41:30.453Z,90.09
2023-02-03T04:43:58.075Z,90.02
2023-02-03T04:46:25.666Z,89.55
2023-02-03T04:48:53.205Z,89.84
2023-02-03T04:51:20.792Z,89.41
2023-02-03T04:53:49.699Z,89.22
2023-02-03T04:56:17.374Z,88.94
2023-02-03T04:58:44.927Z,88.60
2023-02-03T05:01:12.711Z,88.86
2023-02-03T05:03:40.372Z,88.45
2023-02-03T05:06:08.119Z,88.45
2023-02-03T05:08:35.734Z,88.11
2023-02-03T05:11:05.870Z,88.57
2023-02-03T05:13:34.378Z,88.54
2023-02-03T05:16:01.979Z,88.19
2023-02-03T05:18:29.502Z,87.85
2023-02-03T05:20:57.050Z,87.52
2023-02-03T05:23:24.567Z,87.76
2023-02-03T05:25:52.131Z,87.27
2023-02-03T05:28:21.003Z,86.67
2023-02-03T05:30:48.516Z,86.83
2023-02-03T05:33:16.460Z,86.60
2023-02-03T05:35:44.215Z,86.55
2023-02-03T05:38:12.115Z,86.85
2023-02-03T05:41:08.871Z,86.42
2023-02-03T05:43:38.368Z,86.56
2023-02-03T05:46:08.672Z,86.59
2023-02-03T05:48:36.314Z,87.98
2023-02-03T05:51:03.916Z,87.24
2023-02-03T05:53:31.591Z,87.93
2023-02-03T05:55:59.094Z,88.26
2023-02-03T05:58:26.772Z,88.64
2023-02-03T06:00:55.686Z,88.43
2023-02-03T06:03:23.244Z,87.97
2023-02-03T06:05:50.840Z,87.55
2023-02-03T06:08:18.456Z,88.35
2023-02-03T06:10:46.017Z,87.10
2023-02-03T06:13:15.712Z,87.53
2023-02-03T06:15:43.701Z,87.59
2023-02-03T06:18:12.616Z,87.11
2023-02-03T06:20:40.143Z,87.24
2023-02-03T06:23:07.738Z,86.76
2023-02-03T06:25:35.726Z,86.10
2023-02-03T06:28:03.653Z,85.80
2023-02-03T06:30:31.609Z,86.35
2023-02-03T06:32:59.355Z,86.58
2023-02-03T06:35:28.469Z,86.09
2023-02-03T06:37:55.992Z,87.22
2023-02-03T06:40:23.728Z,88.43
2023-02-03T06:42:51.743Z,89.91
2023-02-03T06:45:19.618Z,90.37
2023-02-03T06:47:47.440Z,91.00
2023-02-03T06:50:16.217Z,90.27
2023-02-03T06:52:45.222Z,90.78
2023-02-03T06:55:12.870Z,90.27
2023-02-03T06:57:45.001Z,89.26
2023-02-03T07:00:17.475Z,88.46
2023-02-03T07:02:46.441Z,88.83
2023-02-03T07:05:14.049Z,88.78
2023-02-03T07:07:41.628Z,88.54
2023-02-03T07:10:11.244Z,87.96
2023-02-03T07:12:38.877Z,88.00
2023-02-03T07:15:07.053Z,87.53
2023-02-03T07:17:34.675Z,88.53
2023-02-03T07:20:02.237Z,88.69
2023-02-03T07:22:29.827Z,87.68
2023-02-03T07:24:57.419Z,87.76
2023-02-03T07:27:27.913Z,88.12
2023-02-03T07:29:55.568Z,87.99
2023-02-03T07:32:23.111Z,87.60
2023-02-03T07:34:50.670Z,87.77
2023-02-03T07:37:18.202Z,87.58
2023-02-03T07:39:46.018Z,87.41
2023-02-03T07:42:13.557Z,87.65
2023-02-03T07:44:46.900Z,88.05
2023-02-03T07:47:14.445Z,88.42
2023-02-03T07:49:42.816Z,88.60
2023-02-03T07:52:10.490Z,88.51
2023-02-03T07:54:53.209Z,87.34
2023-02-03T07:57:20.824Z,87.96
2023-02-03T07:59:49.800Z,87.27
2023-02-03T08:02:17.370Z,86.98
2023-02-03T08:04:44.930Z,86.46
2023-02-03T08:07:12.765Z,86.37
2023-02-03T08:09:40.345Z,87.29
2023-02-03T08:12:08.100Z,87.46
2023-02-03T08:14:35.804Z,87.99
2023-02-03T08:17:04.673Z,87.84
2023-02-03T08:19:32.244Z,88.48
2023-02-03T08:22:00.058Z,87.94
2023-02-03T08:24:27.651Z,87.55
2023-02-03T08:26:55.275Z,88.44
2023-02-03T08:29:23.034Z,87.84
2023-02-03T08:31:50.697Z,87.95
2023-02-03T08:34:19.700Z,87.20
2023-02-03T08:36:47.258Z,87.25
2023-02-03T08:39:14.793Z,87.52
2023-02-03T08:41:42.356Z,87.41
2023-02-03T08:44:09.922Z,87.71
2023-02-03T08:46:43.343Z,88.18
2023-02-03T08:49:11.150Z,88.26
2023-02-03T08:51:40.744Z,88.30
2023-02-03T08:54:08.425Z,88.98
2023-02-03T08:56:36.047Z,88.17
2023-02-03T08:59:03.696Z,87.55
2023-02-03T09:01:31.535Z,88.42
2023-02-03T09:04:01.806Z,89.14
2023-02-03T09:06:30.662Z,89.48
2023-02-03T09:08:59.598Z,89.74
2023-02-03T09:11:27.192Z,89.72
2023-02-03T09:13:56.742Z,90.16
2023-02-03T09:16:25.871Z,89.55
2023-02-03T09:18:53.426Z,88.91
2023-02-03T09:21:33.082Z,88.38
2023-02-03T09:24:07.437Z,88.06
2023-02-03T09:26:34.986Z,88.28
2023-02-03T09:29:02.565Z,88.79
2023-02-03T09:31:30.243Z,88.47
2023-02-03T09:33:59.342Z,87.48
2023-02-03T09:36:27.028Z,88.39
2023-02-03T09:38:54.672Z,89.15
2023-02-03T09:41:36.711Z,90.20
2023-02-03T09:44:10.285Z,90.52
2023-02-03T09:46:43.301Z,91.40
2023-02-03T09:49:17.478Z,91.57
2023-02-03T09:51:50.509Z,92.23
2023-02-03T09:54:22.490Z,92.16
2023-02-03T09:56:55.751Z,91.48
2023-02-03T09:59:23.640Z,92.33
2023-02-03T10:01:58.863Z,91.90
2023-02-03T10:04:32.994Z,91.16
2023-02-03T10:07:12.345Z,90.59
2023-02-03T10:09:50.871Z,89.32
2023-02-03T10:12:45.476Z,89.63
2023-02-03T10:15:35.271Z,89.88
2023-02-03T10:18:07.445Z,88.53
2023-02-03T10:20:40.299Z,88.38
2023-02-03T10:23:13.201Z,87.93
2023-02-03T10:25:43.439Z,87.36
2023-02-03T10:28:18.065Z,87.65
2023-02-03T10:30:50.220Z,88.20
2023-02-03T10:33:20.295Z,88.46
2023-02-03T10:35:52.086Z,88.41
2023-02-03T10:38:44.360Z,88.32
2023-02-03T10:41:12.043Z,87.79
2023-02-03T10:43:51.576Z,88.09
2023-02-03T10:46:21.616Z,87.06
2023-02-03T10:48:50.289Z,87.00
2023-02-03T10:51:24.509Z,86.38
2023-02-03T10:53:53.746Z,87.30
2023-02-03T10:56:24.704Z,86.01
2023-02-03T10:58:55.250Z,85.73
2023-02-03T11:01:25.735Z,85.81
2023-02-03T11:03:59.753Z,85.38
2023-02-03T11:06:28.909Z,84.89
2023-02-03T11:08:57.121Z,84.30
2023-02-03T11:11:26.534Z,84.75
2023-02-03T11:13:57.116Z,84.83
2023-02-03T11:16:25.503Z,84.21
2023-02-03T11:18:59.076Z,84.95
2023-02-03T11:21:29.345Z,84.50
2023-02-03T11:24:03.851Z,84.78
2023-02-03T11:26:36.936Z,84.51
2023-02-03T11:29:08.326Z,84.20
2023-02-03T11:31:37.580Z,85.10
2023-02-03T11:34:08.834Z,85.15
2023-02-03T11:36:37.131Z,85.25
2023-02-03T11:39:27.523Z,87.11
2023-02-03T11:41:55.421Z,86.77
2023-02-03T11:44:29.229Z,87.27
2023-02-03T11:46:59.869Z,86.86
2023-02-03T11:49:50.906Z,86.40
2023-02-03T11:52:38.012Z,84.42
2023-02-03T11:55:17.348Z,84.02
2023-02-03T11:57:51.337Z,83.30
2023-02-03T12:00:31.143Z,82.33
2023-02-03T12:03:23.125Z,83.05
2023-02-03T12:06:03.317Z,82.72
2023-02-03T12:08:47.307Z,83.22
2023-02-03T12:11:24.166Z,82.57
2023-02-03T12:14:07.467Z,83.04
2023-02-03T12:16:57.689Z,83.29
2023-02-03T12:19:38.748Z,83.04
2023-02-03T12:22:16.275Z,83.32
2023-02-03T12:24:54.971Z,83.51
2023-02-03T12:27:35.211Z,83.69
2023-02-03T12:30:07.717Z,83.23
2023-02-03T12:32:41.759Z,83.18
2023-02-03T12:35:18.429Z,83.73
2023-02-03T12:37:51.118Z,83.23
2023-02-03T12:40:27.853Z,83.76
2023-02-03T12:42:59.743Z,83.38
2023-02-03T12:45:30.895Z,83.64
2023-02-03T12:48:06.175Z,83.76
2023-02-03T12:50:41.409Z,84.11
2023-02-03T12:53:17.977Z,83.46
2023-02-03T12:55:51.864Z,83.26
2023-02-03T12:58:25.990Z,83.24
2023-02-03T13:00:59.516Z,82.23
2023-02-03T13:03:36.574Z,81.69
2023-02-03T13:06:11.390Z,81.30
2023-02-03T13:08:43.131Z,80.86
2023-02-03T13:11:23.240Z,80.95
2023-02-03T13:13:55.328Z,81.41
2023-02-03T13:16:27.712Z,80.16
2023-02-03T13:19:01.916Z,80.61
2023-02-03T13:21:29.515Z,80.07
2023-02-03T13:23:57.261Z,79.89
2023-02-03T13:26:48.600Z,80.06
2023-02-03T13:29:42.291Z,79.68
2023-02-03T13:32:21.770Z,79.42
2023-02-03T13:35:21.561Z,80.51
2023-02-03T13:38:06.831Z,80.43
2023-02-03T13:40:43.780Z,80.02
2023-02-03T13:43:28.409Z,79.84
2023-02-03T13:46:08.861Z,80.82
2023-02-03T13:48:37.675Z,80.85
2023-02-03T13:51:14.258Z,81.16
2023-02-03T13:53:44.174Z,81.62
2023-02-03T13:56:20.168Z,81.11
2023-02-03T13:59:01.875Z,81.59
2023-02-03T14:01:36.993Z,81.99
2023-02-03T14:04:06.501Z,81.53
2023-02-03T14:06:59.829Z,81.87
2023-02-03T14:09:39.683Z,82.75
2023-02-03T14:12:35.828Z,82.97
2023-02-03T14:15:20.082Z,83.69
2023-02-03T14:18:22.154Z,83.82
2023-02-03T14:20:55.710Z,83.84
2023-02-03T14:23:30.453Z,83.70
2023-02-03T14:26:00.401Z,84.16
2023-02-03T14:28:39.188Z,83.74
2023-02-03T14:31:16.439Z,83.76
2023-02-03T14:33:54.764Z,83.95
2023-02-03T14:36:35.035Z,83.46
2023-02-03T14:39:23.255Z,83.29
2023-02-03T14:41:59.246Z,82.76
2023-02-03T14:44:36.506Z,82.94
2023-02-03T14:47:11.842Z,82.64
2023-02-03T14:50:01.324Z,82.73
2023-02-03T14:52:53.560Z,83.20
2023-02-03T14:55:40.558Z,83.70
2023-02-03T14:58:21.742Z,83.42
2023-02-03T15:00:52.485Z,83.51
2023-02-03T15:03:26.030Z,83.31
2023-02-03T15:05:56.658Z,83.92
2023-02-03T15:08:44.171Z,83.88
2023-02-03T15:11:32.106Z,84.16
2023-02-03T15:14:19.853Z,84.27
2023-02-03T15:16:51.791Z,84.23
2023-02-03T15:19:23.072Z,84.10
2023-02-03T15:21:50.691Z,84.14
2023-02-03T15:24:22.083Z,84.84
2023-02-03T15:26:52.389Z,84.81
2023-02-03T15:29:27.669Z,84.73
2023-02-03T15:32:03.381Z,84.57
2023-02-03T15:34:35.340Z,84.10
2023-02-03T15:37:08.711Z,84.87
2023-02-03T15:39:40.972Z,84.00
2023-02-03T15:42:18.890Z,84.42
2023-02-03T15:44:53.156Z,84.52
2023-02-03T15:47:27.214Z,84.71
2023-02-03T15:50:02.131Z,85.59
2023-02-03T15:52:33.168Z,86.20
2023-02-03T15:55:11.973Z,87.44
2023-02-03T15:57:40.932Z,88.86
2023-02-03T16:00:26.650Z,89.99
2023-02-03T16:02:55.878Z,90.77
2023-02-03T16:05:27.469Z,93.11
2023-02-03T16:07:55.189Z,93.46
2023-02-03T16:10:31.750Z,94.62
2023-02-03T16:13:20.947Z,95.56
2023-02-03T16:16:05.597Z,94.40
2023-02-03T16:18:35.998Z,94.97
2023-02-03T16:21:04.008Z,93.65
2023-02-03T16:23:31.622Z,94.49
2023-02-03T16:26:19.238Z,94.47
2023-02-03T16:29:15.988Z,93.94
2023-02-03T16:32:04.569Z,93.35
2023-02-03T16:34:49.935Z,92.56
2023-02-03T16:37:42.759Z,92.15
2023-02-03T16:40:29.614Z,92.14
2023-02-03T16:43:15.008Z,91.62
2023-02-03T16:46:01.523Z,91.18
2023-02-03T16:48:46.721Z,91.16
2023-02-03T16:51:16.712Z,90.23
2023-02-03T16:53:48.029Z,90.89
2023-02-03T16:56:18.555Z,90.42
2023-02-03T16:58:46.314Z,90.30
2023-02-03T17:01:15.348Z,90.01
2023-02-03T17:03:44.310Z,90.08
2023-02-03T17:06:12.969Z,90.32
2023-02-03T17:08:41.977Z,90.41
2023-02-03T17:11:16.277Z,89.95
2023-02-03T17:13:44.151Z,89.89
2023-02-03T17:16:14.391Z,89.85
2023-02-03T17:18:43.826Z,90.24
2023-02-03T17:21:14.841Z,90.28
2023-02-03T17:23:42.523Z,90.14
2023-02-03T17:26:10.526Z,90.32
2023-02-03T17:28:40.024Z,90.62
2023-02-03T17:31:08.456Z,90.61
2023-02-03T17:33:36.140Z,90.13
2023-02-03T17:36:07.766Z,90.70
2023-02-03T17:55:10.746Z,90.50
2023-02-03T17:57:38.816Z,90.60
2023-02-03T18:00:07.668Z,90.58
2023-02-03T18:02:40.171Z,90.27
2023-02-03T18:05:08.595Z,90.58
2023-02-03T18:07:37.417Z,89.98
2023-02-03T18:10:05.602Z,90.40
2023-02-03T18:12:33.414Z,90.29
2023-02-03T18:15:01.088Z,90.20
2023-02-03T18:17:28.622Z,90.71
2023-02-03T18:19:56.570Z,90.61
2023-02-03T18:22:24.256Z,90.48
2023-02-03T18:24:54.995Z,90.99
2023-02-03T18:27:22.589Z,90.88
2023-02-03T18:29:50.116Z,91.61
2023-02-03T18:32:17.820Z,91.50
2023-02-03T18:34:45.403Z,91.79
2023-02-03T18:37:13.130Z,92.05
2023-02-03T18:39:40.689Z,92.26
2023-02-03T18:42:09.628Z,93.31
2023-02-03T18:44:37.184Z,93.44
2023-02-03T18:47:07.515Z,94.49
2023-02-03T18:49:36.545Z,94.42
2023-02-03T18:52:05.037Z,94.61
2023-02-03T18:54:32.627Z,94.51
2023-02-03T18:57:00.253Z,94.39
2023-02-03T18:59:29.150Z,94.09
2023-02-03T19:01:56.729Z,93.88
2023-02-03T19:04:24.598Z,93.72
2023-02-03T19:06:52.671Z,94.27
2023-02-03T19:09:22.148Z,94.74
2023-02-03T19:11:49.855Z,94.77
2023-02-03T19:14:17.777Z,95.20
2023-02-03T19:16:47.893Z,95.43
2023-02-03T19:19:15.439Z,96.26
2023-02-03T19:21:42.962Z,96.69
2023-02-03T19:24:13.257Z,96.06
2023-02-03T19:26:41.042Z,97.82
2023-02-03T19:29:08.569Z,98.84
2023-02-03T19:31:36.594Z,99.30
2023-02-03T19:34:05.721Z,99.02
2023-02-03T19:36:33.371Z,99.14
2023-02-03T19:39:00.917Z,99.57
2023-02-03T19:41:30.724Z,99.92
2023-02-03T19:43:58.298Z,100.00
2023-02-03T19:46:27.208Z,99.56
2023-02-03T19:48:54.837Z,100.00
2023-02-03T19:51:24.241Z,100.00
2023-02-03T19:53:53.640Z,99.90
2023-02-03T19:56:21.233Z,100.00
2023-02-03T19:58:51.969Z,100.00
2023-02-03T20:01:19.860Z,100.00
2023-02-03T20:03:47.511Z,100.00
2023-02-03T20:06:15.584Z,100.00
2023-02-03T20:08:44.875Z,100.00
2023-02-03T20:11:12.682Z,100.00
2023-02-03T20:13:42.065Z,100.00
2023-02-03T20:16:09.848Z,100.00
2023-02-03T20:18:37.461Z,100.00
2023-02-03T20:21:05.900Z,100.00
2023-02-03T20:23:34.204Z,100.00
2023-02-03T20:26:03.631Z,100.00
2023-02-03T20:28:31.213Z,100.00
2023-02-03T20:31:01.161Z,100.00
2023-02-03T20:33:30.578Z,100.00
2023-02-03T20:35:58.642Z,100.00
2023-02-03T20:38:26.660Z,100.00
2023-02-03T20:40:54.238Z,100.00
2023-02-03T20:43:24.650Z,100.00
2023-02-03T20:45:53.028Z,100.00
2023-02-03T20:48:23.999Z,100.00
2023-02-03T20:50:52.229Z,100.00
2023-02-03T20:53:21.914Z,100.00
2023-02-03T20:55:50.317Z,100.00
2023-02-03T20:58:19.425Z,100.00
2023-02-03T21:00:49.549Z,100.00
2023-02-03T21:03:37.256Z,100.00
2023-02-03T21:06:13.777Z,100.00
2023-02-03T21:08:41.498Z,99.97
2023-02-03T21:11:12.183Z,100.00
2023-02-03T21:13:41.357Z,100.00
2023-02-03T21:16:18.494Z,100.00
2023-02-03T21:18:50.334Z,100.00
2023-02-03T21:21:24.693Z,100.00
2023-02-03T21:23:53.522Z,100.00
2023-02-03T21:26:23.320Z,100.00
2023-02-03T21:28:53.642Z,100.00
2023-02-03T21:31:28.817Z,100.00
2023-02-03T21:33:58.476Z,100.00
2023-02-03T21:36:27.902Z,100.00
2023-02-03T21:38:56.768Z,100.00
2023-02-03T21:41:25.694Z,99.92
2023-02-03T21:43:54.947Z,99.91
2023-02-03T21:46:26.615Z,99.57
2023-02-03T21:48:56.950Z,99.33
2023-02-03T21:51:26.682Z,98.95
2023-02-03T21:53:57.029Z,99.29
2023-02-03T21:56:26.588Z,99.43
2023-02-03T21:58:57.465Z,98.99
2023-02-03T22:01:26.097Z,99.33
2023-02-03T22:03:58.761Z,99.32
2023-02-03T22:06:28.780Z,98.68
2023-02-03T22:08:58.121Z,99.60
2023-02-03T22:11:27.477Z,99.20
2023-02-03T22:13:55.273Z,99.45
2023-02-03T22:16:22.944Z,98.99
2023-02-03T22:18:51.081Z,99.62
2023-02-03T22:21:20.197Z,99.53
2023-02-03T22:23:48.811Z,99.42
2023-02-03T22:26:17.385Z,98.87
2023-02-03T22:28:45.702Z,99.74
2023-02-03T22:31:14.267Z,99.70
2023-02-03T22:33:42.824Z,99.53
2023-02-03T22:36:11.515Z,99.30
2023-02-03T22:38:41.631Z,99.36
2023-02-03T22:41:11.697Z,99.56
2023-02-03T22:43:39.549Z,99.47
2023-02-03T22:46:07.521Z,99.15
2023-02-03T22:48:35.575Z,99.11
2023-02-03T22:51:03.105Z,99.09
2023-02-03T22:53:31.209Z,98.79
2023-02-03T22:56:00.199Z,99.62
2023-02-03T22:58:27.751Z,99.15
2023-02-03T23:00:55.302Z,99.66
2023-02-03T23:03:23.002Z,100.00
2023-02-03T23:05:50.612Z,100.00
2023-02-03T23:08:18.164Z,100.00
2023-02-03T23:10:45.740Z,100.00
2023-02-03T23:13:14.603Z,100.00
2023-02-03T23:15:42.284Z,100.00
2023-02-03T23:18:09.847Z,100.00
2023-02-03T23:20:37.375Z,100.00
2023-02-03T23:23:04.883Z,100.00
2023-02-03T23:25:32.459Z,100.00
2023-02-03T23:27:59.999Z,100.00
2023-02-03T23:30:29.179Z,100.00
2023-02-03T23:32:57.041Z,100.00
2023-02-03T23:35:42.181Z,100.00
2023-02-03T23:38:09.712Z,100.00
2023-02-03T23:40:37.295Z,100.00
2023-02-03T23:43:04.857Z,100.00
2023-02-03T23:45:33.772Z,100.00
2023-02-03T23:48:01.396Z,100.00
2023-02-03T23:50:29.272Z,100.00
2023-02-03T23:52:57.026Z,100.00
2023-02-03T23:55:24.570Z,100.00
2023-02-03T23:57:52.072Z,100.00
